Time;durP1;ratioP1;P1;durP2;ratioP2;P2;SDS_P1;SDS_P2;PMS_P1;PMS_P2;Temp;Humidity;BMP_temperature;BMP_pressure;BME280_temperature;BME280_humidity;BME280_pressure;Samples;Min_cycle;Max_cycle;Signal;HPM_P1;HPM_P2
2022/05/09 00:01:10;;;;;;;11.43;10.30;;;;;;;;;;5051662;28;20450;-76
2022/05/09 00:03:49;;;;;;;11.23;10.13;;;;;;;;;;5050186;28;20460;-76
2022/05/09 00:06:24;;;;;;;11.80;10.60;;;;;;;;;;5048800;28;20454;-76
2022/05/09 00:09:00;;;;;;;10.90;9.77;;;;;;;;;;5043565;28;20908;-77
2022/05/09 00:11:35;;;;;;;11.10;10.00;;;;;;;;;;5044394;28;20458;-76
2022/05/09 00:14:11;;;;;;;11.30;10.10;;;;;;;;;;5051741;28;20976;-76
2022/05/09 00:16:47;;;;;;;11.03;9.83;;;;;;;;;;5051686;28;20450;-76
2022/05/09 00:19:24;;;;;;;10.90;9.80;;;;;;;;;;5066132;28;20458;-76
2022/05/09 00:21:59;;;;;;;10.33;9.33;;;;;;;;;;5045868;28;20441;-76
2022/05/09 00:24:34;;;;;;;10.50;9.50;;;;;;;;;;5035417;28;20488;-77
2022/05/09 00:27:11;;;;;;;14.10;10.33;;;;;;;;;;5067644;28;20437;-76
2022/05/09 00:29:46;;;;;;;11.50;10.40;;;;;;;;;;5051761;28;20457;-76
2022/05/09 00:32:24;;;;;;;9.90;9.00;;;;;;;;;;5049531;28;20456;-76
2022/05/09 00:35:00;;;;;;;10.47;9.40;;;;;;;;;;5051349;28;20548;-76
2022/05/09 00:37:36;;;;;;;9.27;8.47;;;;;;;;;;5049310;28;20450;-76
2022/05/09 00:40:13;;;;;;;10.63;9.53;;;;;;;;;;5067159;28;20477;-76
2022/05/09 00:42:49;;;;;;;10.10;9.10;;;;;;;;;;5069317;28;20532;-76
2022/05/09 00:45:26;;;;;;;9.87;8.97;;;;;;;;;;5035996;28;20536;-76
2022/05/09 00:48:01;;;;;;;9.97;9.07;;;;;;;;;;5067262;28;20908;-76
2022/05/09 00:50:38;;;;;;;10.70;9.00;;;;;;;;;;5061596;28;20548;-76
2022/05/09 00:53:14;;;;;;;10.13;8.90;;;;;;;;;;5045557;28;20453;-76
2022/05/09 00:55:51;;;;;;;11.27;10.17;;;;;;;;;;5046802;28;20793;-76
2022/05/09 00:58:29;;;;;;;14.23;9.13;;;;;;;;;;5062470;28;20459;-76
2022/05/09 01:01:05;;;;;;;9.90;8.80;;;;;;;;;;5062731;28;20853;-76
2022/05/09 01:03:42;;;;;;;9.67;8.77;;;;;;;;;;5049019;28;20508;-76
2022/05/09 01:06:19;;;;;;;10.80;9.80;;;;;;;;;;5051023;28;20553;-76
2022/05/09 01:08:54;;;;;;;11.07;9.97;;;;;;;;;;5046455;28;20454;-76
2022/05/09 01:11:32;;;;;;;11.70;10.70;;;;;;;;;;5066948;28;20469;-76
2022/05/09 01:14:08;;;;;;;11.23;9.93;;;;;;;;;;5048700;28;20939;-76
2022/05/09 01:16:46;;;;;;;11.23;10.13;;;;;;;;;;5067467;28;20453;-77
2022/05/09 01:19:27;;;;;;;11.50;10.40;;;;;;;;;;5048618;28;20472;-76
2022/05/09 01:22:05;;;;;;;13.57;12.27;;;;;;;;;;5062332;28;20799;-76
2022/05/09 01:24:41;;;;;;;13.33;10.73;;;;;;;;;;5066578;28;20821;-76
2022/05/09 01:27:17;;;;;;;12.07;10.97;;;;;;;;;;5048571;28;20556;-76
2022/05/09 01:29:56;;;;;;;11.93;10.83;;;;;;;;;;5055813;28;20461;-76
2022/05/09 01:32:34;;;;;;;11.77;10.67;;;;;;;;;;5070414;28;20533;-76
2022/05/09 01:35:12;;;;;;;11.80;10.60;;;;;;;;;;5072890;28;20453;-76
2022/05/09 01:37:51;;;;;;;12.53;11.33;;;;;;;;;;5053703;28;20639;-76
2022/05/09 01:40:26;;;;;;;11.63;10.50;;;;;;;;;;5053565;28;20446;-76
2022/05/09 01:43:01;;;;;;;12.27;10.97;;;;;;;;;;5069347;28;20951;-76
2022/05/09 01:45:37;;;;;;;12.70;10.83;;;;;;;;;;5049963;28;20445;-76
2022/05/09 01:51:06;;;;;;;11.70;10.60;;;;;;;;;;5048780;28;20520;-76
2022/05/09 01:53:45;;;;;;;11.63;10.53;;;;;;;;;;5065431;28;20545;-77
2022/05/09 01:56:21;;;;;;;12.37;10.53;;;;;;;;;;5055213;28;20806;-76
2022/05/09 01:58:56;;;;;;;11.53;10.37;;;;;;;;;;5052455;28;20457;-76
2022/05/09 02:01:35;;;;;;;12.10;10.90;;;;;;;;;;5071272;28;20445;-76
2022/05/09 02:04:11;;;;;;;12.57;11.37;;;;;;;;;;5054671;28;20458;-75
2022/05/09 02:06:46;;;;;;;12.00;10.80;;;;;;;;;;5072398;28;20871;-76
2022/05/09 02:09:23;;;;;;;12.67;11.40;;;;;;;;;;5050004;28;20453;-76
2022/05/09 02:11:58;;;;;;;11.37;10.17;;;;;;;;;;5071101;28;20892;-76
2022/05/09 02:14:33;;;;;;;13.17;11.33;;;;;;;;;;5048018;28;20460;-76
2022/05/09 02:17:09;;;;;;;11.60;10.50;;;;;;;;;;5051367;28;20461;-75
2022/05/09 02:19:45;;;;;;;12.30;11.10;;;;;;;;;;5070885;28;20927;-76
2022/05/09 02:22:21;;;;;;;12.93;11.63;;;;;;;;;;5052729;28;20441;-76
2022/05/09 02:24:57;;;;;;;12.70;11.40;;;;;;;;;;5071306;28;20457;-75
2022/05/09 02:27:33;;;;;;;13.03;11.67;;;;;;;;;;5070002;28;20445;-76
2022/05/09 02:30:10;;;;;;;12.33;11.13;;;;;;;;;;5070142;28;20473;-76
2022/05/09 02:32:45;;;;;;;10.93;9.83;;;;;;;;;;5052018;28;20838;-76
2022/05/09 02:35:21;;;;;;;11.83;10.63;;;;;;;;;;5053338;28;20956;-76
2022/05/09 02:37:56;;;;;;;12.97;11.67;;;;;;;;;;5050256;28;20437;-75
2022/05/09 02:40:37;;;;;;;11.70;10.60;;;;;;;;;;5069870;28;20543;-76
2022/05/09 02:43:13;;;;;;;12.43;11.23;;;;;;;;;;5071701;28;20476;-76
2022/05/09 02:45:48;;;;;;;13.70;12.40;;;;;;;;;;5049065;28;20546;-76
2022/05/09 02:48:23;;;;;;;12.30;11.10;;;;;;;;;;5052903;28;20458;-76
2022/05/09 02:50:59;;;;;;;13.30;12.00;;;;;;;;;;5036852;28;20498;-76
2022/05/09 02:53:35;;;;;;;12.73;11.43;;;;;;;;;;5070727;28;20484;-76
2022/05/09 02:56:12;;;;;;;12.57;11.30;;;;;;;;;;5051583;28;20450;-75
2022/05/09 02:58:47;;;;;;;13.33;11.93;;;;;;;;;;5052994;28;20457;-76
2022/05/09 03:01:22;;;;;;;12.37;11.27;;;;;;;;;;5052319;28;20860;-76
2022/05/09 03:06:52;;;;;;;13.37;11.10;;;;;;;;;;5049024;28;20438;-76
2022/05/09 03:09:27;;;;;;;12.00;10.77;;;;;;;;;;5036061;28;20461;-76
2022/05/09 03:12:05;;;;;;;11.87;10.70;;;;;;;;;;5053333;28;20461;-76
2022/05/09 03:14:41;;;;;;;12.97;11.53;;;;;;;;;;5051942;28;20454;-76
2022/05/09 03:17:16;;;;;;;13.13;11.83;;;;;;;;;;5067282;28;20444;-76
2022/05/09 03:19:52;;;;;;;13.47;12.17;;;;;;;;;;5050086;28;20445;-75
2022/05/09 03:22:28;;;;;;;13.43;12.13;;;;;;;;;;5063219;28;20936;-76
2022/05/09 03:25:03;;;;;;;12.90;11.70;;;;;;;;;;5053253;28;20481;-76
2022/05/09 03:27:40;;;;;;;12.47;11.37;;;;;;;;;;5049297;28;20459;-75
2022/05/09 03:30:16;;;;;;;12.60;11.50;;;;;;;;;;5067773;28;20482;-75
2022/05/09 03:32:52;;;;;;;12.43;11.23;;;;;;;;;;5069181;28;20827;-76
2022/05/09 03:35:28;;;;;;;13.90;12.60;;;;;;;;;;5064738;28;20837;-75
2022/05/09 03:38:03;;;;;;;13.47;11.90;;;;;;;;;;5061816;28;20454;-76
2022/05/09 03:40:38;;;;;;;13.77;12.37;;;;;;;;;;5048954;28;20859;-75
2022/05/09 03:43:15;;;;;;;13.10;11.80;;;;;;;;;;5053442;28;20453;-76
2022/05/09 03:45:51;;;;;;;13.00;11.23;;;;;;;;;;5050276;28;20450;-76
2022/05/09 03:48:28;;;;;;;13.27;11.67;;;;;;;;;;5062863;28;20489;-76
2022/05/09 03:51:05;;;;;;;14.33;12.93;;;;;;;;;;5062524;28;20462;-76
2022/05/09 03:53:41;;;;;;;13.97;12.57;;;;;;;;;;5068631;28;20489;-76
2022/05/09 03:56:16;;;;;;;12.70;11.40;;;;;;;;;;5065595;28;20473;-76
2022/05/09 03:58:53;;;;;;;12.00;10.80;;;;;;;;;;5050979;28;20528;-76
2022/05/09 04:01:28;;;;;;;13.30;11.90;;;;;;;;;;5069099;28;20466;-76
2022/05/09 04:04:06;;;;;;;12.90;11.60;;;;;;;;;;5047976;28;20891;-76
2022/05/09 04:06:41;;;;;;;12.93;11.73;;;;;;;;;;5060894;28;20545;-76
2022/05/09 04:09:16;;;;;;;12.50;10.90;;;;;;;;;;5067841;28;20541;-76
2022/05/09 04:11:52;;;;;;;13.63;12.33;;;;;;;;;;5051125;28;20454;-76
2022/05/09 04:17:22;;;;;;;14.30;12.90;;;;;;;;;;5044530;28;20546;-76
2022/05/09 04:19:59;;;;;;;13.23;11.83;;;;;;;;;;5051068;28;20487;-76
2022/05/09 04:22:35;;;;;;;13.57;12.37;;;;;;;;;;5068172;28;20438;-76
2022/05/09 04:25:12;;;;;;;13.93;12.53;;;;;;;;;;5068892;28;20438;-76
2022/05/09 04:27:47;;;;;;;14.90;13.50;;;;;;;;;;5046360;28;20493;-76
2022/05/09 04:30:24;;;;;;;12.50;11.30;;;;;;;;;;5068243;28;20469;-76
2022/05/09 04:33:00;;;;;;;14.20;12.90;;;;;;;;;;5067023;28;22011;-76
2022/05/09 04:35:37;;;;;;;15.70;14.23;;;;;;;;;;5063169;28;20445;-76
2022/05/09 04:38:13;;;;;;;15.20;13.00;;;;;;;;;;5049426;28;20469;-76
2022/05/09 04:40:51;;;;;;;14.70;13.23;;;;;;;;;;5035850;28;20548;-76
2022/05/09 04:43:28;;;;;;;12.83;11.60;;;;;;;;;;5047087;28;20449;-76
2022/05/09 04:46:08;;;;;;;13.70;12.30;;;;;;;;;;5044725;28;20445;-76
2022/05/09 04:48:46;;;;;;;13.90;12.60;;;;;;;;;;5061955;28;20587;-77
2022/05/09 04:51:22;;;;;;;13.00;11.70;;;;;;;;;;5049921;28;20458;-76
2022/05/09 04:53:57;;;;;;;13.73;12.43;;;;;;;;;;5030014;28;20463;-76
2022/05/09 04:56:32;;;;;;;13.47;12.07;;;;;;;;;;5049256;28;20445;-76
2022/05/09 04:59:08;;;;;;;12.67;11.53;;;;;;;;;;5050629;28;20450;-76
2022/05/09 05:01:45;;;;;;;13.17;11.97;;;;;;;;;;5041890;28;20837;-77
2022/05/09 05:04:20;;;;;;;14.53;13.07;;;;;;;;;;5068377;28;20851;-76
2022/05/09 05:06:56;;;;;;;14.80;11.80;;;;;;;;;;5050650;28;20457;-77
2022/05/09 05:09:32;;;;;;;12.30;11.20;;;;;;;;;;5067706;28;20461;-77
2022/05/09 05:12:08;;;;;;;12.73;11.43;;;;;;;;;;5066598;28;20465;-76
2022/05/09 05:14:44;;;;;;;12.90;11.70;;;;;;;;;;5067897;28;20449;-77
2022/05/09 05:17:21;;;;;;;12.60;11.30;;;;;;;;;;5049582;28;20446;-77
2022/05/09 05:19:56;;;;;;;12.47;11.37;;;;;;;;;;5046182;28;20944;-77
2022/05/09 05:22:35;;;;;;;12.50;11.40;;;;;;;;;;5068372;28;20433;-77
2022/05/09 05:25:12;;;;;;;11.60;10.63;;;;;;;;;;5060566;28;20970;-77
2022/05/09 05:27:48;;;;;;;12.60;11.47;;;;;;;;;;5046894;28;20607;-77
2022/05/09 05:30:23;;;;;;;12.70;11.40;;;;;;;;;;5058598;28;20969;-77
2022/05/09 05:33:01;;;;;;;12.73;11.60;;;;;;;;;;5068485;28;20470;-77
2022/05/09 05:35:36;;;;;;;11.70;10.70;;;;;;;;;;5063978;28;20445;-77
2022/05/09 05:38:11;;;;;;;12.60;11.30;;;;;;;;;;5046722;28;20462;-77
2022/05/09 05:40:49;;;;;;;12.47;11.17;;;;;;;;;;5050076;28;20499;-77
2022/05/09 05:43:24;;;;;;;12.67;11.57;;;;;;;;;;5050307;28;20548;-77
2022/05/09 05:45:59;;;;;;;12.27;11.17;;;;;;;;;;5046428;28;20482;-77
2022/05/09 05:48:35;;;;;;;12.27;11.17;;;;;;;;;;5043208;28;20779;-77
2022/05/09 05:51:14;;;;;;;12.83;11.70;;;;;;;;;;5049137;28;20457;-77
2022/05/09 05:53:50;;;;;;;12.00;10.90;;;;;;;;;;5048715;28;20450;-77
2022/05/09 05:56:37;;;;;;;11.57;10.53;;;;;;;;;;5044525;28;20528;-77
2022/05/09 05:59:13;;;;;;;12.90;11.60;;;;;;;;;;5065438;28;20511;-77
2022/05/09 06:01:51;;;;;;;11.43;10.43;;;;;;;;;;5047978;28;20441;-77
2022/05/09 06:04:29;;;;;;;12.57;11.37;;;;;;;;;;5045953;28;20467;-77
2022/05/09 06:07:05;;;;;;;11.23;10.20;;;;;;;;;;5067001;28;20524;-77
2022/05/09 06:09:41;;;;;;;12.67;11.43;;;;;;;;;;5041619;28;20453;-77
2022/05/09 06:12:17;;;;;;;12.10;11.00;;;;;;;;;;5047614;28;20465;-77
2022/05/09 06:17:42;;;;;;;12.80;11.60;;;;;;;;;;5065304;28;20526;-77
2022/05/09 06:20:19;;;;;;;11.47;10.37;;;;;;;;;;5051849;28;20457;-77
2022/05/09 06:22:56;;;;;;;12.50;11.37;;;;;;;;;;5069994;28;20892;-77
2022/05/09 06:25:34;;;;;;;11.77;10.57;;;;;;;;;;5072353;28;20449;-77
2022/05/09 06:28:09;;;;;;;11.67;10.57;;;;;;;;;;5037449;28;20450;-77
2022/05/09 06:30:46;;;;;;;14.50;11.70;;;;;;;;;;5051192;28;20446;-77
2022/05/09 06:33:22;;;;;;;12.37;11.30;;;;;;;;;;5053153;28;20446;-77
2022/05/09 06:35:59;;;;;;;12.77;11.67;;;;;;;;;;5051317;28;20453;-77
2022/05/09 06:38:35;;;;;;;11.80;10.70;;;;;;;;;;5050390;28;20469;-77
2022/05/09 06:41:16;;;;;;;11.77;10.27;;;;;;;;;;5055114;28;20476;-77
2022/05/09 06:43:52;;;;;;;11.93;10.90;;;;;;;;;;5053627;28;20796;-78
2022/05/09 06:46:30;;;;;;;13.27;11.33;;;;;;;;;;5038291;28;20897;-78
2022/05/09 06:49:05;;;;;;;11.67;10.70;;;;;;;;;;5068280;28;20527;-77
2022/05/09 06:51:44;;;;;;;11.73;10.77;;;;;;;;;;5047928;28;20442;-77
2022/05/09 06:54:21;;;;;;;11.50;10.57;;;;;;;;;;5027232;28;20462;-77
2022/05/09 06:56:58;;;;;;;18.40;11.53;;;;;;;;;;5060241;28;20442;-77
2022/05/09 06:59:34;;;;;;;13.80;11.53;;;;;;;;;;5064032;28;20438;-77
2022/05/09 07:02:13;;;;;;;14.00;11.10;;;;;;;;;;5065570;28;20422;-77
2022/05/09 07:04:48;;;;;;;11.93;10.73;;;;;;;;;;5066943;28;20617;-77
2022/05/09 07:07:25;;;;;;;12.37;11.07;;;;;;;;;;5047340;28;20434;-77
2022/05/09 07:10:02;;;;;;;12.20;11.20;;;;;;;;;;5047849;28;20449;-77
2022/05/09 07:12:56;;;;;;;12.73;11.63;;;;;;;;;;5049087;28;20462;-77
2022/05/09 07:15:34;;;;;;;13.17;11.90;;;;;;;;;;5065446;28;20996;-78
2022/05/09 07:18:09;;;;;;;14.00;12.60;;;;;;;;;;5064061;28;20454;-78
2022/05/09 07:20:46;;;;;;;12.67;11.07;;;;;;;;;;5063267;28;20473;-78
2022/05/09 07:23:23;;;;;;;13.00;11.87;;;;;;;;;;5049263;28;20427;-78
2022/05/09 07:25:58;;;;;;;18.30;12.43;;;;;;;;;;5065697;28;20441;-78
2022/05/09 07:28:34;;;;;;;13.70;12.50;;;;;;;;;;5051480;28;20453;-78
2022/05/09 07:31:09;;;;;;;13.77;12.57;;;;;;;;;;5066176;28;20801;-78
2022/05/09 07:33:45;;;;;;;15.40;12.30;;;;;;;;;;5067878;28;20466;-78
2022/05/09 07:36:23;;;;;;;12.87;11.67;;;;;;;;;;5046705;28;20450;-78
2022/05/09 07:38:59;;;;;;;13.03;11.77;;;;;;;;;;5068913;28;20575;-78
2022/05/09 07:41:35;;;;;;;12.93;11.70;;;;;;;;;;5050268;28;20446;-78
2022/05/09 07:44:11;;;;;;;15.50;12.07;;;;;;;;;;5051864;28;20449;-78
2022/05/09 07:46:47;;;;;;;12.70;11.60;;;;;;;;;;5069819;28;20548;-78
2022/05/09 07:49:22;;;;;;;13.80;11.97;;;;;;;;;;5049574;28;20437;-78
2022/05/09 07:51:59;;;;;;;12.30;11.30;;;;;;;;;;5064521;28;21187;-78
2022/05/09 07:54:36;;;;;;;12.27;11.23;;;;;;;;;;5050495;28;20450;-78
2022/05/09 07:57:11;;;;;;;13.10;11.90;;;;;;;;;;5043591;28;20459;-78
2022/05/09 07:59:46;;;;;;;13.17;11.87;;;;;;;;;;5065482;28;20853;-78
2022/05/09 08:02:22;;;;;;;13.13;11.80;;;;;;;;;;5045905;28;20434;-78
2022/05/09 08:04:57;;;;;;;13.13;12.00;;;;;;;;;;5051116;28;20461;-78
2022/05/09 08:07:32;;;;;;;12.80;11.40;;;;;;;;;;5046595;28;20458;-78
2022/05/09 08:10:10;;;;;;;13.93;12.53;;;;;;;;;;5062919;28;20544;-78
2022/05/09 08:12:47;;;;;;;12.70;11.40;;;;;;;;;;5046040;28;20461;-79
2022/05/09 08:15:23;;;;;;;12.50;11.40;;;;;;;;;;5047077;28;20461;-79
2022/05/09 08:18:01;;;;;;;11.47;10.47;;;;;;;;;;5048551;28;20836;-79
2022/05/09 08:20:37;;;;;;;12.20;11.20;;;;;;;;;;5067138;28;20817;-78
2022/05/09 08:23:27;;;;;;;12.40;11.30;;;;;;;;;;5059953;28;20453;-78
2022/05/09 08:26:04;;;;;;;12.70;11.50;;;;;;;;;;5044837;28;20462;-78
2022/05/09 08:28:40;;;;;;;13.03;12.00;;;;;;;;;;5045076;28;20454;-79
2022/05/09 08:31:18;;;;;;;12.67;11.63;;;;;;;;;;5047301;28;20766;-78
2022/05/09 08:33:56;;;;;;;12.07;11.07;;;;;;;;;;5065583;28;20473;-78
2022/05/09 08:36:48;;;;;;;12.40;11.30;;;;;;;;;;5044953;28;20481;-78
2022/05/09 08:39:26;;;;;;;12.40;11.40;;;;;;;;;;5060542;28;20481;-79
2022/05/09 08:42:05;;;;;;;12.40;11.40;;;;;;;;;;5045533;28;20445;-78
2022/05/09 08:44:51;;;;;;;11.90;10.80;;;;;;;;;;5054110;28;20458;-78
2022/05/09 08:47:49;;;;;;;11.50;10.47;;;;;;;;;;5065905;28;20472;-78
2022/05/09 08:50:28;;;;;;;11.80;10.80;;;;;;;;;;5044735;28;20457;-79
2022/05/09 08:53:08;;;;;;;11.10;10.10;;;;;;;;;;5065835;28;20469;-79
2022/05/09 08:55:52;;;;;;;11.70;10.77;;;;;;;;;;5067559;28;20793;-78
2022/05/09 08:58:37;;;;;;;10.67;9.77;;;;;;;;;;5066066;28;20801;-77
2022/05/09 09:01:15;;;;;;;11.83;10.83;;;;;;;;;;5063956;28;20466;-78
2022/05/09 09:03:54;;;;;;;11.57;10.47;;;;;;;;;;5064026;28;20458;-77
2022/05/09 09:06:38;;;;;;;11.73;10.73;;;;;;;;;;5064927;28;20438;-77
2022/05/09 09:09:18;;;;;;;15.17;10.30;;;;;;;;;;5064509;28;20529;-78
2022/05/09 09:11:57;;;;;;;11.30;10.40;;;;;;;;;;5064062;28;20446;-77
2022/05/09 09:14:41;;;;;;;11.47;10.57;;;;;;;;;;5060986;28;20464;-77
2022/05/09 09:17:24;;;;;;;10.17;9.27;;;;;;;;;;5062554;28;20487;-77
2022/05/09 09:20:05;;;;;;;11.27;10.27;;;;;;;;;;5064159;28;20438;-77
2022/05/09 09:22:56;;;;;;;11.40;10.40;;;;;;;;;;5044434;28;20446;-77
2022/05/09 09:25:36;;;;;;;11.87;10.87;;;;;;;;;;5061456;28;20442;-77
2022/05/09 09:28:14;;;;;;;11.60;10.50;;;;;;;;;;5043097;28;20451;-77
2022/05/09 09:30:51;;;;;;;11.53;10.53;;;;;;;;;;5043948;28;20967;-77
2022/05/09 09:33:27;;;;;;;12.13;10.93;;;;;;;;;;5061681;28;20933;-77
2022/05/09 09:36:05;;;;;;;11.03;10.13;;;;;;;;;;5041026;28;20442;-77
2022/05/09 09:38:41;;;;;;;10.50;9.60;;;;;;;;;;5040177;28;20514;-77
2022/05/09 09:41:19;;;;;;;11.77;10.67;;;;;;;;;;5043357;28;20923;-77
2022/05/09 09:43:57;;;;;;;10.90;9.90;;;;;;;;;;5043439;28;20552;-77
2022/05/09 09:46:53;;;;;;;11.10;10.20;;;;;;;;;;5044924;28;20781;-77
2022/05/09 09:49:30;;;;;;;12.77;11.77;;;;;;;;;;5058235;28;20450;-77
2022/05/09 09:52:13;;;;;;;11.73;10.73;;;;;;;;;;5044025;28;20545;-77
2022/05/09 09:54:51;;;;;;;12.07;10.83;;;;;;;;;;5049564;28;20941;-77
2022/05/09 09:57:29;;;;;;;12.40;10.40;;;;;;;;;;5065183;28;20456;-77
2022/05/09 10:00:15;;;;;;;12.10;10.50;;;;;;;;;;5050063;28;20844;-77
2022/05/09 10:02:51;;;;;;;11.00;10.10;;;;;;;;;;5048493;28;20452;-77
2022/05/09 10:05:33;;;;;;;11.53;10.53;;;;;;;;;;5063812;28;20458;-77
2022/05/09 10:08:17;;;;;;;12.17;11.07;;;;;;;;;;5047518;28;20458;-77
2022/05/09 10:10:55;;;;;;;11.27;10.30;;;;;;;;;;5047730;28;20450;-77
2022/05/09 10:13:41;;;;;;;10.60;9.73;;;;;;;;;;5046634;28;20569;-77
2022/05/09 10:16:24;;;;;;;11.10;10.00;;;;;;;;;;5040725;28;20431;-77
2022/05/09 10:19:00;;;;;;;11.30;10.00;;;;;;;;;;5042101;28;20881;-77
2022/05/09 10:24:48;;;;;;;12.40;11.30;;;;;;;;;;5042857;28;20482;-77
2022/05/09 10:27:28;;;;;;;10.73;9.80;;;;;;;;;;5045132;28;20452;-77
2022/05/09 10:30:07;;;;;;;10.70;9.67;;;;;;;;;;5044058;28;20491;-77
2022/05/09 10:32:46;;;;;;;10.50;9.40;;;;;;;;;;5042187;28;20470;-76
2022/05/09 10:35:23;;;;;;;9.93;9.03;;;;;;;;;;5050592;28;20449;-76
2022/05/09 10:38:02;;;;;;;10.67;9.77;;;;;;;;;;5045259;28;20811;-77
2022/05/09 10:40:41;;;;;;;10.37;9.43;;;;;;;;;;5050077;28;20485;-77
2022/05/09 10:43:20;;;;;;;9.97;9.17;;;;;;;;;;5052058;28;20446;-76
2022/05/09 10:45:56;;;;;;;10.30;9.27;;;;;;;;;;5050659;28;20878;-77
2022/05/09 10:48:38;;;;;;;10.40;9.53;;;;;;;;;;5050867;28;20469;-76
2022/05/09 10:51:29;;;;;;;10.27;9.37;;;;;;;;;;5067567;28;20469;-76
2022/05/09 10:54:09;;;;;;;9.30;8.53;;;;;;;;;;5051323;28;20824;-76
2022/05/09 10:56:46;;;;;;;9.90;9.03;;;;;;;;;;5045096;28;20470;-76
2022/05/09 10:59:24;;;;;;;10.17;9.23;;;;;;;;;;5064002;28;20445;-76
2022/05/09 11:02:02;;;;;;;9.03;8.33;;;;;;;;;;5051848;28;20843;-76
2022/05/09 11:04:38;;;;;;;9.90;9.00;;;;;;;;;;5065800;28;20429;-77
2022/05/09 11:07:17;;;;;;;9.87;9.03;;;;;;;;;;5047637;28;20502;-76
2022/05/09 11:10:00;;;;;;;10.23;9.43;;;;;;;;;;5048080;28;20961;-76
2022/05/09 11:12:48;;;;;;;9.47;8.60;;;;;;;;;;5049851;28;20558;-76
2022/05/09 11:15:29;;;;;;;10.10;8.23;;;;;;;;;;5049626;28;20447;-76
2022/05/09 11:18:14;;;;;;;10.57;9.67;;;;;;;;;;5064964;28;20898;-76
2022/05/09 11:20:52;;;;;;;8.97;8.23;;;;;;;;;;5065309;28;20809;-76
2022/05/09 11:23:32;;;;;;;9.90;9.00;;;;;;;;;;5044647;28;20505;-76
2022/05/09 11:26:15;;;;;;;9.70;8.80;;;;;;;;;;5047951;28;20438;-76
2022/05/09 11:29:08;;;;;;;9.87;8.87;;;;;;;;;;5031076;28;20499;-76
2022/05/09 11:31:54;;;;;;;8.73;7.93;;;;;;;;;;5045204;28;20848;-76
2022/05/09 11:34:37;;;;;;;9.67;8.77;;;;;;;;;;5047253;28;20948;-76
2022/05/09 11:37:16;;;;;;;9.53;8.73;;;;;;;;;;5062845;28;20485;-76
2022/05/09 11:39:56;;;;;;;8.93;8.10;;;;;;;;;;5045180;28;20476;-76
2022/05/09 11:45:29;;;;;;;9.17;8.40;;;;;;;;;;5047861;28;20504;-78
2022/05/09 11:48:09;;;;;;;9.20;8.40;;;;;;;;;;5050094;28;20450;-78
2022/05/09 11:50:51;;;;;;;8.67;7.87;;;;;;;;;;5062767;28;20933;-78
2022/05/09 11:53:28;;;;;;;9.30;8.60;;;;;;;;;;5045286;28;20476;-77
2022/05/09 11:56:07;;;;;;;9.17;7.90;;;;;;;;;;5061136;28;20449;-78
2022/05/09 11:58:44;;;;;;;8.70;8.00;;;;;;;;;;5044353;28;20863;-78
2022/05/09 12:01:49;;;;;;;8.97;8.17;;;;;;;;;;5044894;28;20521;-78
2022/05/09 12:04:29;;;;;;;8.77;7.87;;;;;;;;;;5060134;28;21004;-78
2022/05/09 12:07:23;;;;;;;9.33;8.53;;;;;;;;;;5062321;28;20433;-78
2022/05/09 12:10:03;;;;;;;9.60;8.60;;;;;;;;;;5060981;28;20940;-78
2022/05/09 12:12:54;;;;;;;8.30;7.70;;;;;;;;;;5057058;28;20438;-78
2022/05/09 12:15:48;;;;;;;8.17;7.40;;;;;;;;;;5047494;28;20446;-78
2022/05/09 12:18:30;;;;;;;9.63;7.93;;;;;;;;;;5067385;28;20442;-78
2022/05/09 12:21:24;;;;;;;8.00;7.40;;;;;;;;;;5045772;28;20449;-78
2022/05/09 12:24:14;;;;;;;8.10;7.40;;;;;;;;;;5062583;28;20450;-78
2022/05/09 12:26:51;;;;;;;8.73;7.93;;;;;;;;;;5051620;28;20442;-78
2022/05/09 12:29:48;;;;;;;9.33;8.53;;;;;;;;;;5053626;28;20423;-78
2022/05/09 12:32:24;;;;;;;8.03;7.23;;;;;;;;;;5049644;28;20442;-78
2022/05/09 12:35:01;;;;;;;8.30;7.70;;;;;;;;;;5047277;28;20461;-78
2022/05/09 12:37:44;;;;;;;8.57;7.80;;;;;;;;;;5065769;28;20474;-78
2022/05/09 12:40:20;;;;;;;8.10;7.40;;;;;;;;;;5070907;28;20422;-78
2022/05/09 12:43:00;;;;;;;8.33;7.70;;;;;;;;;;5068697;28;20442;-78
2022/05/09 12:45:35;;;;;;;8.10;7.50;;;;;;;;;;5063333;28;20567;-78
2022/05/09 12:48:11;;;;;;;9.10;8.30;;;;;;;;;;5052319;28;20462;-78
2022/05/09 12:50:49;;;;;;;9.60;7.87;;;;;;;;;;5042489;28;20493;-78
2022/05/09 12:53:31;;;;;;;9.10;8.20;;;;;;;;;;5029755;28;20449;-78
2022/05/09 12:56:12;;;;;;;9.00;8.17;;;;;;;;;;5046300;28;20461;-77
2022/05/09 12:58:48;;;;;;;7.83;7.23;;;;;;;;;;5065636;28;20843;-77
2022/05/09 13:01:26;;;;;;;12.10;8.37;;;;;;;;;;5057953;28;20426;-78
2022/05/09 13:04:03;;;;;;;7.87;7.17;;;;;;;;;;5063495;28;20844;-78
2022/05/09 13:06:45;;;;;;;8.73;7.93;;;;;;;;;;5060583;28;20445;-78
2022/05/09 13:09:23;;;;;;;8.00;7.30;;;;;;;;;;5045269;28;20454;-78
2022/05/09 13:12:01;;;;;;;8.97;8.20;;;;;;;;;;5045021;28;20454;-77
2022/05/09 13:14:38;;;;;;;8.47;7.67;;;;;;;;;;5058289;28;20455;-77
2022/05/09 13:17:15;;;;;;;8.37;7.60;;;;;;;;;;5060160;28;20545;-78
2022/05/09 13:19:51;;;;;;;8.90;8.10;;;;;;;;;;5046327;28;20806;-78
2022/05/09 13:22:29;;;;;;;7.60;6.90;;;;;;;;;;5069798;28;20487;-77
2022/05/09 13:25:00;;;;;;;8.70;7.60;;;;;;;;;;5051199;28;20444;-77
2022/05/09 13:27:27;;;;;;;8.50;7.70;;;;;;;;;;5065692;28;20446;-78
2022/05/09 13:29:54;;;;;;;9.90;7.03;;;;;;;;;;5047205;28;20441;-78
2022/05/09 13:32:26;;;;;;;8.33;7.73;;;;;;;;;;5047366;28;20466;-78
2022/05/09 13:34:54;;;;;;;8.90;8.00;;;;;;;;;;5034503;28;20512;-78
2022/05/09 13:37:30;;;;;;;9.33;7.57;;;;;;;;;;5050820;28;21018;-78
2022/05/09 13:39:57;;;;;;;8.67;7.97;;;;;;;;;;5052472;28;20438;-78
2022/05/09 13:42:26;;;;;;;9.70;8.80;;;;;;;;;;5032806;28;20469;-78
2022/05/09 13:44:54;;;;;;;8.33;7.53;;;;;;;;;;5050180;28;20495;-78
2022/05/09 13:47:22;;;;;;;8.60;7.80;;;;;;;;;;5030546;28;20458;-78
2022/05/09 13:49:50;;;;;;;9.90;9.10;;;;;;;;;;5031622;28;20459;-78
2022/05/09 13:52:19;;;;;;;9.17;8.37;;;;;;;;;;5049196;28;20513;-78
2022/05/09 13:54:49;;;;;;;8.47;7.63;;;;;;;;;;5027586;28;20484;-78
2022/05/09 13:57:17;;;;;;;8.37;7.60;;;;;;;;;;5040474;28;20462;-78
2022/05/09 13:59:46;;;;;;;8.80;8.00;;;;;;;;;;5048533;28;20443;-78
2022/05/09 14:02:14;;;;;;;8.70;8.03;;;;;;;;;;5013920;28;20449;-78
2022/05/09 14:04:42;;;;;;;8.87;8.07;;;;;;;;;;5043092;28;20441;-78
2022/05/09 14:10:03;;;;;;;9.17;8.40;;;;;;;;;;5035577;28;20445;-78
2022/05/09 14:12:30;;;;;;;10.10;8.10;;;;;;;;;;5040251;28;20454;-78
2022/05/09 14:15:01;;;;;;;8.80;8.00;;;;;;;;;;5044797;28;20563;-78
2022/05/09 14:17:31;;;;;;;9.00;8.23;;;;;;;;;;5036807;28;20495;-78
2022/05/09 14:19:59;;;;;;;8.23;7.47;;;;;;;;;;5002672;28;20454;-79
2022/05/09 14:22:31;;;;;;;9.70;8.90;;;;;;;;;;5025183;28;20451;-79
2022/05/09 14:30:38;;;;;;;7.40;6.80;;;;;;;;;;5027047;28;20831;-78
2022/05/09 14:33:29;;;;;;;8.63;7.87;;;;;;;;;;5041752;28;20944;-79
2022/05/09 14:35:56;;;;;;;8.53;7.87;;;;;;;;;;5046061;28;20872;-78
2022/05/09 14:38:33;;;;;;;8.33;7.40;;;;;;;;;;5048497;28;20446;-78
2022/05/09 14:41:36;;;;;;;8.70;8.00;;;;;;;;;;5029629;28;20895;-78
2022/05/09 14:44:14;;;;;;;8.23;7.43;;;;;;;;;;5039777;28;20595;-78
2022/05/09 14:46:42;;;;;;;8.67;8.07;;;;;;;;;;5049452;28;20486;-78
2022/05/09 14:49:10;;;;;;;8.90;8.00;;;;;;;;;;5052044;28;20490;-78
2022/05/09 14:51:37;;;;;;;8.43;7.73;;;;;;;;;;5044662;28;20493;-77
2022/05/09 14:54:07;;;;;;;8.63;7.83;;;;;;;;;;5041567;28;20459;-78
2022/05/09 14:59:34;;;;;;;9.13;8.33;;;;;;;;;;4950092;28;20450;-77
2022/05/09 15:02:04;;;;;;;8.30;7.60;;;;;;;;;;5029206;28;20459;-78
2022/05/09 15:04:31;;;;;;;8.90;8.10;;;;;;;;;;5035640;28;20441;-77
2022/05/09 15:06:58;;;;;;;8.40;7.50;;;;;;;;;;5033749;28;20981;-78
2022/05/09 15:09:25;;;;;;;8.27;7.57;;;;;;;;;;5047146;28;20474;-78
2022/05/09 15:11:53;;;;;;;9.13;8.33;;;;;;;;;;5033269;28;20874;-78
2022/05/09 15:14:22;;;;;;;7.67;7.07;;;;;;;;;;5049317;28;20839;-78
2022/05/09 15:16:50;;;;;;;14.00;8.23;;;;;;;;;;5028753;28;20451;-78
2022/05/09 15:19:23;;;;;;;7.90;7.10;;;;;;;;;;5049946;28;20464;-78
2022/05/09 15:21:50;;;;;;;8.47;7.77;;;;;;;;;;5051261;28;21017;-78
2022/05/09 15:24:21;;;;;;;7.43;6.83;;;;;;;;;;5026664;28;20535;-78
2022/05/09 15:26:49;;;;;;;9.40;7.33;;;;;;;;;;5043078;28;20853;-77
2022/05/09 15:29:17;;;;;;;7.83;7.17;;;;;;;;;;5049324;28;20530;-78
2022/05/09 15:31:43;;;;;;;7.53;6.90;;;;;;;;;;5032794;28;20558;-78
2022/05/09 15:34:12;;;;;;;7.93;7.20;;;;;;;;;;5029734;28;20524;-78
2022/05/09 15:36:39;;;;;;;7.93;7.27;;;;;;;;;;5028947;28;20467;-78
2022/05/09 15:39:06;;;;;;;8.07;7.40;;;;;;;;;;5012274;28;20462;-77
2022/05/09 15:41:35;;;;;;;8.20;7.50;;;;;;;;;;5047164;28;20550;-77
2022/05/09 15:44:03;;;;;;;8.37;7.77;;;;;;;;;;5032790;28;20431;-78
2022/05/09 15:46:31;;;;;;;8.47;7.60;;;;;;;;;;5023767;28;20501;-77
2022/05/09 15:48:58;;;;;;;8.23;7.63;;;;;;;;;;5050923;28;20450;-77
2022/05/09 15:51:26;;;;;;;7.53;6.93;;;;;;;;;;5067250;28;20561;-77